sensor_id;sensor_type;location;lat;lon;timestamp;P1;durP1;ratioP1;P2;durP2;ratioP2
78854;SDS011;68206;59.956;30.234;2024-01-30T00:00:00;8.55;;;3.55;;
78854;SDS011;68206;59.956;30.234;2024-01-30T00:02:30;6.72;;;2.92;;
78854;SDS011;68206;59.956;30.234;2024-01-30T00:04:59;9.82;;;3.30;;
78854;SDS011;68206;59.956;30.234;2024-01-30T00:07:27;9.93;;;3.35;;
78854;SDS011;68206;59.956;30.234;2024-01-30T00:09:56;7.15;;;3.33;;
78854;SDS011;68206;59.956;30.234;2024-01-30T00:12:24;13.77;;;4.10;;
78854;SDS011;68206;59.956;30.234;2024-01-30T00:14:53;12.70;;;4.07;;
78854;SDS011;68206;59.956;30.234;2024-01-30T00:17:23;11.60;;;3.17;;
78854;SDS011;68206;59.956;30.234;2024-01-30T00:19:53;7.63;;;2.92;;
78854;SDS011;68206;59.956;30.234;2024-01-30T00:22:21;7.18;;;3.10;;
78854;SDS011;68206;59.956;30.234;2024-01-30T00:24:52;7.95;;;3.90;;
78854;SDS011;68206;59.956;30.234;2024-01-30T00:27:21;9.90;;;3.72;;
78854;SDS011;68206;59.956;30.234;2024-01-30T00:29:49;5.32;;;2.92;;
78854;SDS011;68206;59.956;30.234;2024-01-30T00:32:18;10.35;;;3.85;;
78854;SDS011;68206;59.956;30.234;2024-01-30T00:34:48;6.53;;;3.47;;
78854;SDS011;68206;59.956;30.234;2024-01-30T00:37:16;7.70;;;3.25;;
78854;SDS011;68206;59.956;30.234;2024-01-30T00:39:45;6.00;;;3.35;;
78854;SDS011;68206;59.956;30.234;2024-01-30T00:42:13;8.25;;;3.50;;
78854;SDS011;68206;59.956;30.234;2024-01-30T00:44:42;9.15;;;3.53;;
78854;SDS011;68206;59.956;30.234;2024-01-30T00:47:11;10.15;;;3.50;;
78854;SDS011;68206;59.956;30.234;2024-01-30T00:49:39;6.60;;;3.10;;
78854;SDS011;68206;59.956;30.234;2024-01-30T00:52:09;12.52;;;3.85;;
78854;SDS011;68206;59.956;30.234;2024-01-30T00:54:38;8.60;;;3.50;;
78854;SDS011;68206;59.956;30.234;2024-01-30T00:57:07;9.18;;;4.03;;
78854;SDS011;68206;59.956;30.234;2024-01-30T00:59:36;8.77;;;3.55;;
78854;SDS011;68206;59.956;30.234;2024-01-30T01:02:04;8.23;;;3.25;;
78854;SDS011;68206;59.956;30.234;2024-01-30T01:04:33;7.00;;;3.22;;
78854;SDS011;68206;59.956;30.234;2024-01-30T01:07:02;7.78;;;3.42;;
78854;SDS011;68206;59.956;30.234;2024-01-30T01:09:32;7.45;;;3.20;;
78854;SDS011;68206;59.956;30.234;2024-01-30T01:12:12;12.23;;;4.10;;
78854;SDS011;68206;59.956;30.234;2024-01-30T01:14:40;7.25;;;3.33;;
78854;SDS011;68206;59.956;30.234;2024-01-30T01:17:08;8.73;;;3.60;;
78854;SDS011;68206;59.956;30.234;2024-01-30T01:19:37;7.60;;;3.28;;
78854;SDS011;68206;59.956;30.234;2024-01-30T01:22:06;9.10;;;3.58;;
78854;SDS011;68206;59.956;30.234;2024-01-30T01:24:36;7.80;;;3.53;;
78854;SDS011;68206;59.956;30.234;2024-01-30T01:27:05;10.30;;;3.97;;
78854;SDS011;68206;59.956;30.234;2024-01-30T01:29:33;10.13;;;3.60;;
78854;SDS011;68206;59.956;30.234;2024-01-30T01:32:01;5.78;;;3.33;;
78854;SDS011;68206;59.956;30.234;2024-01-30T01:34:30;6.68;;;3.33;;
78854;SDS011;68206;59.956;30.234;2024-01-30T01:36:58;10.88;;;3.60;;
78854;SDS011;68206;59.956;30.234;2024-01-30T01:39:27;9.00;;;3.97;;
78854;SDS011;68206;59.956;30.234;2024-01-30T01:41:57;7.57;;;3.28;;
78854;SDS011;68206;59.956;30.234;2024-01-30T01:44:27;6.28;;;3.10;;
78854;SDS011;68206;59.956;30.234;2024-01-30T01:46:55;8.10;;;3.35;;
78854;SDS011;68206;59.956;30.234;2024-01-30T01:49:25;5.68;;;3.10;;
78854;SDS011;68206;59.956;30.234;2024-01-30T01:51:57;11.55;;;3.10;;
78854;SDS011;68206;59.956;30.234;2024-01-30T01:54:27;9.73;;;3.58;;
78854;SDS011;68206;59.956;30.234;2024-01-30T01:56:58;10.00;;;3.72;;
78854;SDS011;68206;59.956;30.234;2024-01-30T01:59:29;7.65;;;3.97;;
78854;SDS011;68206;59.956;30.234;2024-01-30T02:01:57;8.02;;;3.42;;
78854;SDS011;68206;59.956;30.234;2024-01-30T02:04:26;8.45;;;3.47;;
78854;SDS011;68206;59.956;30.234;2024-01-30T02:06:54;10.23;;;3.67;;
78854;SDS011;68206;59.956;30.234;2024-01-30T02:09:23;6.05;;;3.22;;
78854;SDS011;68206;59.956;30.234;2024-01-30T02:11:52;10.85;;;3.28;;
78854;SDS011;68206;59.956;30.234;2024-01-30T02:14:21;8.18;;;3.50;;
78854;SDS011;68206;59.956;30.234;2024-01-30T02:16:52;9.15;;;3.10;;
78854;SDS011;68206;59.956;30.234;2024-01-30T02:19:21;6.70;;;3.47;;
78854;SDS011;68206;59.956;30.234;2024-01-30T02:21:51;10.07;;;3.67;;
78854;SDS011;68206;59.956;30.234;2024-01-30T02:24:20;7.35;;;3.28;;
78854;SDS011;68206;59.956;30.234;2024-01-30T02:26:48;11.88;;;3.80;;
78854;SDS011;68206;59.956;30.234;2024-01-30T02:29:17;5.95;;;2.65;;
78854;SDS011;68206;59.956;30.234;2024-01-30T02:31:46;9.52;;;3.40;;
78854;SDS011;68206;59.956;30.234;2024-01-30T02:34:14;8.25;;;3.00;;
78854;SDS011;68206;59.956;30.234;2024-01-30T02:36:43;8.73;;;4.03;;
78854;SDS011;68206;59.956;30.234;2024-01-30T02:39:13;7.68;;;3.03;;
78854;SDS011;68206;59.956;30.234;2024-01-30T02:41:41;8.75;;;3.30;;
78854;SDS011;68206;59.956;30.234;2024-01-30T02:44:09;13.00;;;3.97;;
78854;SDS011;68206;59.956;30.234;2024-01-30T02:46:38;7.35;;;3.10;;
78854;SDS011;68206;59.956;30.234;2024-01-30T02:49:07;11.05;;;3.28;;
78854;SDS011;68206;59.956;30.234;2024-01-30T02:51:35;9.60;;;3.35;;
78854;SDS011;68206;59.956;30.234;2024-01-30T02:54:04;7.68;;;3.28;;
78854;SDS011;68206;59.956;30.234;2024-01-30T02:56:34;9.15;;;3.28;;
78854;SDS011;68206;59.956;30.234;2024-01-30T02:59:02;10.50;;;3.58;;
78854;SDS011;68206;59.956;30.234;2024-01-30T03:01:31;11.40;;;4.10;;
78854;SDS011;68206;59.956;30.234;2024-01-30T03:04:00;7.53;;;3.15;;
78854;SDS011;68206;59.956;30.234;2024-01-30T03:06:29;9.77;;;3.38;;
78854;SDS011;68206;59.956;30.234;2024-01-30T03:08:58;10.65;;;3.42;;
78854;SDS011;68206;59.956;30.234;2024-01-30T03:11:26;7.75;;;2.85;;
78854;SDS011;68206;59.956;30.234;2024-01-30T03:13:56;7.53;;;3.15;;
78854;SDS011;68206;59.956;30.234;2024-01-30T03:16:24;12.25;;;3.38;;
78854;SDS011;68206;59.956;30.234;2024-01-30T03:18:53;10.27;;;3.63;;
78854;SDS011;68206;59.956;30.234;2024-01-30T03:21:21;8.85;;;3.80;;
78854;SDS011;68206;59.956;30.234;2024-01-30T03:23:50;8.15;;;3.20;;
78854;SDS011;68206;59.956;30.234;2024-01-30T03:26:18;8.02;;;3.70;;
78854;SDS011;68206;59.956;30.234;2024-01-30T03:28:47;9.63;;;3.80;;
78854;SDS011;68206;59.956;30.234;2024-01-30T03:31:16;6.85;;;3.35;;
78854;SDS011;68206;59.956;30.234;2024-01-30T03:33:46;8.70;;;3.20;;
78854;SDS011;68206;59.956;30.234;2024-01-30T03:36:15;8.52;;;3.45;;
78854;SDS011;68206;59.956;30.234;2024-01-30T03:38:43;9.68;;;3.90;;
78854;SDS011;68206;59.956;30.234;2024-01-30T03:41:12;5.28;;;3.03;;
78854;SDS011;68206;59.956;30.234;2024-01-30T03:43:40;11.30;;;3.83;;
78854;SDS011;68206;59.956;30.234;2024-01-30T03:46:08;9.90;;;3.65;;
78854;SDS011;68206;59.956;30.234;2024-01-30T03:48:41;7.35;;;3.83;;
78854;SDS011;68206;59.956;30.234;2024-01-30T03:51:09;7.43;;;3.25;;
78854;SDS011;68206;59.956;30.234;2024-01-30T03:53:41;11.15;;;3.88;;
78854;SDS011;68206;59.956;30.234;2024-01-30T03:56:12;10.10;;;3.25;;
78854;SDS011;68206;59.956;30.234;2024-01-30T03:58:41;10.73;;;3.58;;
78854;SDS011;68206;59.956;30.234;2024-01-30T04:01:12;8.85;;;3.10;;
78854;SDS011;68206;59.956;30.234;2024-01-30T04:03:43;10.95;;;4.20;;
78854;SDS011;68206;59.956;30.234;2024-01-30T04:06:12;11.63;;;3.50;;
78854;SDS011;68206;59.956;30.234;2024-01-30T04:08:40;8.70;;;3.53;;
78854;SDS011;68206;59.956;30.234;2024-01-30T04:11:09;10.30;;;4.43;;
78854;SDS011;68206;59.956;30.234;2024-01-30T04:13:37;11.02;;;3.70;;
78854;SDS011;68206;59.956;30.234;2024-01-30T04:16:06;9.48;;;3.90;;
78854;SDS011;68206;59.956;30.234;2024-01-30T04:18:35;12.35;;;4.78;;
78854;SDS011;68206;59.956;30.234;2024-01-30T04:21:05;9.75;;;3.92;;
78854;SDS011;68206;59.956;30.234;2024-01-30T04:23:33;8.75;;;4.45;;
78854;SDS011;68206;59.956;30.234;2024-01-30T04:26:01;13.07;;;4.10;;
78854;SDS011;68206;59.956;30.234;2024-01-30T04:28:30;10.10;;;4.55;;
78854;SDS011;68206;59.956;30.234;2024-01-30T04:30:59;14.32;;;4.38;;
78854;SDS011;68206;59.956;30.234;2024-01-30T04:33:28;10.07;;;4.28;;
78854;SDS011;68206;59.956;30.234;2024-01-30T04:35:56;10.63;;;4.25;;
78854;SDS011;68206;59.956;30.234;2024-01-30T04:38:27;11.20;;;4.38;;
78854;SDS011;68206;59.956;30.234;2024-01-30T04:40:55;10.65;;;4.88;;
78854;SDS011;68206;59.956;30.234;2024-01-30T04:43:24;12.35;;;4.68;;
78854;SDS011;68206;59.956;30.234;2024-01-30T04:45:53;10.73;;;5.90;;
78854;SDS011;68206;59.956;30.234;2024-01-30T04:48:21;13.63;;;5.15;;
78854;SDS011;68206;59.956;30.234;2024-01-30T04:50:50;16.48;;;5.68;;
78854;SDS011;68206;59.956;30.234;2024-01-30T04:53:18;15.05;;;5.50;;
78854;SDS011;68206;59.956;30.234;2024-01-30T04:55:48;17.13;;;5.93;;
78854;SDS011;68206;59.956;30.234;2024-01-30T04:58:16;18.05;;;5.78;;
78854;SDS011;68206;59.956;30.234;2024-01-30T05:00:45;10.80;;;4.43;;
78854;SDS011;68206;59.956;30.234;2024-01-30T05:03:18;13.35;;;4.90;;
78854;SDS011;68206;59.956;30.234;2024-01-30T05:05:49;11.10;;;5.20;;
78854;SDS011;68206;59.956;30.234;2024-01-30T05:08:17;11.02;;;4.88;;
78854;SDS011;68206;59.956;30.234;2024-01-30T05:10:47;12.02;;;4.32;;
78854;SDS011;68206;59.956;30.234;2024-01-30T05:13:17;11.07;;;4.75;;
78854;SDS011;68206;59.956;30.234;2024-01-30T05:15:45;10.27;;;4.45;;
78854;SDS011;68206;59.956;30.234;2024-01-30T05:18:14;15.57;;;5.25;;
78854;SDS011;68206;59.956;30.234;2024-01-30T05:20:42;11.55;;;4.57;;
78854;SDS011;68206;59.956;30.234;2024-01-30T05:23:11;14.48;;;5.00;;
78854;SDS011;68206;59.956;30.234;2024-01-30T05:25:39;10.07;;;4.40;;
78854;SDS011;68206;59.956;30.234;2024-01-30T05:28:09;13.13;;;4.72;;
78854;SDS011;68206;59.956;30.234;2024-01-30T05:30:38;12.63;;;4.93;;
78854;SDS011;68206;59.956;30.234;2024-01-30T05:33:07;12.07;;;5.25;;
78854;SDS011;68206;59.956;30.234;2024-01-30T05:35:36;12.93;;;5.35;;
78854;SDS011;68206;59.956;30.234;2024-01-30T05:38:05;16.73;;;5.05;;
78854;SDS011;68206;59.956;30.234;2024-01-30T05:40:33;12.55;;;5.10;;
78854;SDS011;68206;59.956;30.234;2024-01-30T05:43:02;12.57;;;4.72;;
78854;SDS011;68206;59.956;30.234;2024-01-30T05:45:32;17.05;;;4.53;;
78854;SDS011;68206;59.956;30.234;2024-01-30T05:48:01;15.05;;;4.60;;
78854;SDS011;68206;59.956;30.234;2024-01-30T05:50:30;10.00;;;4.28;;
78854;SDS011;68206;59.956;30.234;2024-01-30T05:52:59;13.85;;;4.75;;
78854;SDS011;68206;59.956;30.234;2024-01-30T05:55:27;11.45;;;4.38;;
78854;SDS011;68206;59.956;30.234;2024-01-30T05:57:56;9.55;;;4.18;;
78854;SDS011;68206;59.956;30.234;2024-01-30T06:00:24;10.63;;;4.10;;
78854;SDS011;68206;59.956;30.234;2024-01-30T06:02:55;10.80;;;4.00;;
78854;SDS011;68206;59.956;30.234;2024-01-30T06:05:23;8.10;;;3.78;;
78854;SDS011;68206;59.956;30.234;2024-01-30T06:07:52;12.98;;;4.63;;
78854;SDS011;68206;59.956;30.234;2024-01-30T06:10:21;12.07;;;4.70;;
78854;SDS011;68206;59.956;30.234;2024-01-30T06:12:49;14.85;;;4.10;;
78854;SDS011;68206;59.956;30.234;2024-01-30T06:15:17;10.07;;;4.18;;
78854;SDS011;68206;59.956;30.234;2024-01-30T06:17:46;9.57;;;4.30;;
78854;SDS011;68206;59.956;30.234;2024-01-30T06:20:16;11.63;;;3.97;;
78854;SDS011;68206;59.956;30.234;2024-01-30T06:22:45;10.75;;;3.80;;
78854;SDS011;68206;59.956;30.234;2024-01-30T06:25:14;8.15;;;4.03;;
78854;SDS011;68206;59.956;30.234;2024-01-30T06:27:43;10.80;;;3.83;;
78854;SDS011;68206;59.956;30.234;2024-01-30T06:30:13;9.32;;;4.03;;
78854;SDS011;68206;59.956;30.234;2024-01-30T06:32:41;10.10;;;3.75;;
78854;SDS011;68206;59.956;30.234;2024-01-30T06:35:10;10.02;;;4.18;;
78854;SDS011;68206;59.956;30.234;2024-01-30T06:37:40;11.60;;;4.22;;
78854;SDS011;68206;59.956;30.234;2024-01-30T06:40:09;10.02;;;4.00;;
78854;SDS011;68206;59.956;30.234;2024-01-30T06:42:38;9.65;;;4.20;;
78854;SDS011;68206;59.956;30.234;2024-01-30T06:45:08;7.35;;;4.05;;
78854;SDS011;68206;59.956;30.234;2024-01-30T06:47:37;10.93;;;4.13;;
78854;SDS011;68206;59.956;30.234;2024-01-30T06:50:06;9.70;;;4.15;;
78854;SDS011;68206;59.956;30.234;2024-01-30T06:52:35;9.07;;;4.15;;
78854;SDS011;68206;59.956;30.234;2024-01-30T06:55:05;14.07;;;4.40;;
78854;SDS011;68206;59.956;30.234;2024-01-30T06:57:34;12.82;;;4.15;;
78854;SDS011;68206;59.956;30.234;2024-01-30T07:00:03;6.88;;;3.83;;
78854;SDS011;68206;59.956;30.234;2024-01-30T07:02:32;9.35;;;3.65;;
78854;SDS011;68206;59.956;30.234;2024-01-30T07:05:00;11.82;;;4.35;;
78854;SDS011;68206;59.956;30.234;2024-01-30T07:07:29;13.20;;;4.00;;
78854;SDS011;68206;59.956;30.234;2024-01-30T07:09:58;9.32;;;4.20;;
78854;SDS011;68206;59.956;30.234;2024-01-30T07:12:28;7.80;;;3.72;;
78854;SDS011;68206;59.956;30.234;2024-01-30T07:14:58;10.02;;;3.95;;
78854;SDS011;68206;59.956;30.234;2024-01-30T07:17:28;11.00;;;4.03;;
78854;SDS011;68206;59.956;30.234;2024-01-30T07:19:56;10.50;;;4.13;;
78854;SDS011;68206;59.956;30.234;2024-01-30T07:22:25;9.35;;;4.20;;
78854;SDS011;68206;59.956;30.234;2024-01-30T07:24:53;12.43;;;3.95;;
78854;SDS011;68206;59.956;30.234;2024-01-30T07:27:22;12.82;;;3.90;;
78854;SDS011;68206;59.956;30.234;2024-01-30T07:29:52;7.45;;;3.75;;
78854;SDS011;68206;59.956;30.234;2024-01-30T07:32:20;11.15;;;3.80;;
78854;SDS011;68206;59.956;30.234;2024-01-30T07:34:49;10.02;;;3.42;;
78854;SDS011;68206;59.956;30.234;2024-01-30T07:37:32;11.73;;;4.45;;
78854;SDS011;68206;59.956;30.234;2024-01-30T07:40:02;10.25;;;3.88;;
78854;SDS011;68206;59.956;30.234;2024-01-30T07:42:31;11.18;;;4.45;;
78854;SDS011;68206;59.956;30.234;2024-01-30T07:45:01;12.55;;;4.10;;
78854;SDS011;68206;59.956;30.234;2024-01-30T07:47:30;8.95;;;4.07;;
78854;SDS011;68206;59.956;30.234;2024-01-30T07:49:58;9.82;;;4.22;;
78854;SDS011;68206;59.956;30.234;2024-01-30T07:52:27;11.88;;;4.68;;
78854;SDS011;68206;59.956;30.234;2024-01-30T07:54:56;7.07;;;3.22;;
78854;SDS011;68206;59.956;30.234;2024-01-30T07:57:24;8.95;;;3.90;;
78854;SDS011;68206;59.956;30.234;2024-01-30T07:59:52;16.00;;;4.47;;
78854;SDS011;68206;59.956;30.234;2024-01-30T08:02:22;10.40;;;4.07;;
78854;SDS011;68206;59.956;30.234;2024-01-30T08:04:51;9.00;;;3.95;;
78854;SDS011;68206;59.956;30.234;2024-01-30T08:07:19;7.78;;;3.67;;
78854;SDS011;68206;59.956;30.234;2024-01-30T08:09:49;8.90;;;3.90;;
78854;SDS011;68206;59.956;30.234;2024-01-30T08:12:17;8.55;;;4.20;;
78854;SDS011;68206;59.956;30.234;2024-01-30T08:14:46;8.50;;;4.20;;
78854;SDS011;68206;59.956;30.234;2024-01-30T08:17:17;12.25;;;4.80;;
78854;SDS011;68206;59.956;30.234;2024-01-30T08:19:46;10.07;;;3.78;;
78854;SDS011;68206;59.956;30.234;2024-01-30T08:22:15;8.77;;;4.50;;
78854;SDS011;68206;59.956;30.234;2024-01-30T08:24:44;10.63;;;4.05;;
78854;SDS011;68206;59.956;30.234;2024-01-30T08:27:14;11.00;;;4.65;;
78854;SDS011;68206;59.956;30.234;2024-01-30T08:29:42;12.45;;;4.82;;
78854;SDS011;68206;59.956;30.234;2024-01-30T08:32:11;13.35;;;4.65;;
78854;SDS011;68206;59.956;30.234;2024-01-30T08:34:39;7.18;;;4.05;;
78854;SDS011;68206;59.956;30.234;2024-01-30T08:37:09;9.45;;;4.22;;
78854;SDS011;68206;59.956;30.234;2024-01-30T08:39:38;9.32;;;4.30;;
78854;SDS011;68206;59.956;30.234;2024-01-30T08:42:06;10.30;;;5.10;;
78854;SDS011;68206;59.956;30.234;2024-01-30T08:44:35;11.60;;;4.68;;
78854;SDS011;68206;59.956;30.234;2024-01-30T08:47:03;14.93;;;5.53;;
78854;SDS011;68206;59.956;30.234;2024-01-30T08:49:32;7.47;;;3.75;;
78854;SDS011;68206;59.956;30.234;2024-01-30T08:52:01;8.43;;;4.93;;
78854;SDS011;68206;59.956;30.234;2024-01-30T08:54:31;10.48;;;4.32;;
78854;SDS011;68206;59.956;30.234;2024-01-30T08:57:02;9.60;;;4.25;;
78854;SDS011;68206;59.956;30.234;2024-01-30T08:59:30;9.85;;;4.68;;
78854;SDS011;68206;59.956;30.234;2024-01-30T09:02:00;10.52;;;4.15;;
78854;SDS011;68206;59.956;30.234;2024-01-30T09:04:38;7.63;;;3.95;;
78854;SDS011;68206;59.956;30.234;2024-01-30T09:07:08;10.35;;;4.63;;
78854;SDS011;68206;59.956;30.234;2024-01-30T09:09:39;13.85;;;5.05;;
78854;SDS011;68206;59.956;30.234;2024-01-30T09:12:08;11.90;;;4.35;;
78854;SDS011;68206;59.956;30.234;2024-01-30T09:14:40;9.15;;;4.60;;
78854;SDS011;68206;59.956;30.234;2024-01-30T09:17:08;7.15;;;4.47;;
78854;SDS011;68206;59.956;30.234;2024-01-30T09:19:37;10.90;;;4.35;;
78854;SDS011;68206;59.956;30.234;2024-01-30T09:22:06;9.82;;;4.45;;
78854;SDS011;68206;59.956;30.234;2024-01-30T09:24:34;13.35;;;4.50;;
78854;SDS011;68206;59.956;30.234;2024-01-30T09:27:04;11.23;;;4.60;;
78854;SDS011;68206;59.956;30.234;2024-01-30T09:29:33;14.15;;;4.50;;
78854;SDS011;68206;59.956;30.234;2024-01-30T09:32:04;8.63;;;4.68;;
78854;SDS011;68206;59.956;30.234;2024-01-30T09:34:33;11.05;;;4.38;;
78854;SDS011;68206;59.956;30.234;2024-01-30T09:37:02;10.05;;;4.28;;
78854;SDS011;68206;59.956;30.234;2024-01-30T09:39:31;8.57;;;4.70;;
78854;SDS011;68206;59.956;30.234;2024-01-30T09:42:01;10.25;;;4.78;;
78854;SDS011;68206;59.956;30.234;2024-01-30T09:44:35;11.23;;;5.25;;
78854;SDS011;68206;59.956;30.234;2024-01-30T09:47:07;11.88;;;4.75;;
78854;SDS011;68206;59.956;30.234;2024-01-30T09:49:35;10.65;;;4.95;;
78854;SDS011;68206;59.956;30.234;2024-01-30T09:52:07;9.55;;;4.22;;
78854;SDS011;68206;59.956;30.234;2024-01-30T09:54:36;12.48;;;4.20;;
78854;SDS011;68206;59.956;30.234;2024-01-30T09:57:06;6.93;;;4.15;;
78854;SDS011;68206;59.956;30.234;2024-01-30T09:59:36;9.60;;;4.55;;
78854;SDS011;68206;59.956;30.234;2024-01-30T10:02:06;10.93;;;4.38;;
78854;SDS011;68206;59.956;30.234;2024-01-30T10:04:36;12.60;;;5.70;;
78854;SDS011;68206;59.956;30.234;2024-01-30T10:07:04;10.80;;;4.55;;
78854;SDS011;68206;59.956;30.234;2024-01-30T10:09:34;11.93;;;4.85;;
78854;SDS011;68206;59.956;30.234;2024-01-30T10:12:03;13.65;;;5.07;;
78854;SDS011;68206;59.956;30.234;2024-01-30T10:14:32;10.05;;;4.63;;
78854;SDS011;68206;59.956;30.234;2024-01-30T10:17:02;10.77;;;4.72;;
78854;SDS011;68206;59.956;30.234;2024-01-30T10:19:44;9.55;;;4.80;;
78854;SDS011;68206;59.956;30.234;2024-01-30T10:22:12;10.07;;;4.07;;
78854;SDS011;68206;59.956;30.234;2024-01-30T10:24:41;8.23;;;4.53;;
78854;SDS011;68206;59.956;30.234;2024-01-30T10:27:12;9.05;;;4.68;;
78854;SDS011;68206;59.956;30.234;2024-01-30T10:29:40;11.48;;;4.70;;
78854;SDS011;68206;59.956;30.234;2024-01-30T10:32:10;11.70;;;4.97;;
78854;SDS011;68206;59.956;30.234;2024-01-30T10:34:40;11.38;;;5.60;;
78854;SDS011;68206;59.956;30.234;2024-01-30T10:37:09;11.07;;;4.93;;
78854;SDS011;68206;59.956;30.234;2024-01-30T10:39:42;15.35;;;6.10;;
78854;SDS011;68206;59.956;30.234;2024-01-30T10:42:13;10.48;;;5.13;;
78854;SDS011;68206;59.956;30.234;2024-01-30T10:44:44;13.40;;;5.53;;
78854;SDS011;68206;59.956;30.234;2024-01-30T10:47:25;14.43;;;5.38;;
78854;SDS011;68206;59.956;30.234;2024-01-30T10:49:55;16.38;;;6.10;;
78854;SDS011;68206;59.956;30.234;2024-01-30T10:52:25;8.70;;;5.55;;
78854;SDS011;68206;59.956;30.234;2024-01-30T10:54:56;10.68;;;4.90;;
78854;SDS011;68206;59.956;30.234;2024-01-30T10:57:25;16.08;;;5.35;;
78854;SDS011;68206;59.956;30.234;2024-01-30T10:59:55;8.57;;;4.82;;
78854;SDS011;68206;59.956;30.234;2024-01-30T11:02:26;15.18;;;5.13;;
78854;SDS011;68206;59.956;30.234;2024-01-30T11:04:56;10.73;;;5.90;;
78854;SDS011;68206;59.956;30.234;2024-01-30T11:07:29;11.90;;;4.50;;
78854;SDS011;68206;59.956;30.234;2024-01-30T11:10:01;12.73;;;5.32;;
78854;SDS011;68206;59.956;30.234;2024-01-30T11:12:32;11.23;;;4.78;;
78854;SDS011;68206;59.956;30.234;2024-01-30T11:15:02;11.90;;;5.10;;
78854;SDS011;68206;59.956;30.234;2024-01-30T11:17:43;12.02;;;5.35;;
78854;SDS011;68206;59.956;30.234;2024-01-30T11:20:14;12.60;;;4.63;;
78854;SDS011;68206;59.956;30.234;2024-01-30T11:22:44;11.35;;;4.93;;
78854;SDS011;68206;59.956;30.234;2024-01-30T11:25:14;8.18;;;4.47;;
78854;SDS011;68206;59.956;30.234;2024-01-30T11:27:43;10.90;;;4.50;;
78854;SDS011;68206;59.956;30.234;2024-01-30T11:30:20;9.85;;;4.30;;
78854;SDS011;68206;59.956;30.234;2024-01-30T11:33:01;8.57;;;4.10;;
78854;SDS011;68206;59.956;30.234;2024-01-30T11:35:33;12.35;;;4.20;;
78854;SDS011;68206;59.956;30.234;2024-01-30T11:38:03;9.43;;;4.28;;
78854;SDS011;68206;59.956;30.234;2024-01-30T11:40:34;10.30;;;4.20;;
78854;SDS011;68206;59.956;30.234;2024-01-30T11:43:05;8.85;;;4.25;;
78854;SDS011;68206;59.956;30.234;2024-01-30T11:45:34;10.77;;;4.45;;
78854;SDS011;68206;59.956;30.234;2024-01-30T11:48:06;8.48;;;4.32;;
78854;SDS011;68206;59.956;30.234;2024-01-30T11:50:38;7.70;;;3.63;;
78854;SDS011;68206;59.956;30.234;2024-01-30T11:53:07;9.40;;;4.70;;
78854;SDS011;68206;59.956;30.234;2024-01-30T11:55:37;12.40;;;4.07;;
78854;SDS011;68206;59.956;30.234;2024-01-30T11:58:05;7.63;;;3.92;;
78854;SDS011;68206;59.956;30.234;2024-01-30T12:00:34;10.85;;;5.10;;
78854;SDS011;68206;59.956;30.234;2024-01-30T12:03:03;9.63;;;4.53;;
78854;SDS011;68206;59.956;30.234;2024-01-30T12:05:34;11.23;;;4.30;;
78854;SDS011;68206;59.956;30.234;2024-01-30T12:08:06;7.35;;;4.13;;
78854;SDS011;68206;59.956;30.234;2024-01-30T12:10:34;10.02;;;4.15;;
78854;SDS011;68206;59.956;30.234;2024-01-30T12:13:03;6.53;;;3.47;;
78854;SDS011;68206;59.956;30.234;2024-01-30T12:15:32;9.00;;;4.32;;
78854;SDS011;68206;59.956;30.234;2024-01-30T12:18:04;7.68;;;4.10;;
78854;SDS011;68206;59.956;30.234;2024-01-30T12:20:35;10.85;;;4.13;;
78854;SDS011;68206;59.956;30.234;2024-01-30T12:23:04;8.95;;;3.75;;
78854;SDS011;68206;59.956;30.234;2024-01-30T12:25:33;13.52;;;4.03;;
78854;SDS011;68206;59.956;30.234;2024-01-30T12:28:01;9.20;;;3.88;;
78854;SDS011;68206;59.956;30.234;2024-01-30T12:30:30;9.73;;;4.00;;
78854;SDS011;68206;59.956;30.234;2024-01-30T12:32:59;10.00;;;4.13;;
78854;SDS011;68206;59.956;30.234;2024-01-30T12:35:28;8.13;;;3.70;;
78854;SDS011;68206;59.956;30.234;2024-01-30T12:38:01;8.50;;;3.70;;
78854;SDS011;68206;59.956;30.234;2024-01-30T12:40:33;9.02;;;4.13;;
78854;SDS011;68206;59.956;30.234;2024-01-30T12:43:04;10.05;;;4.22;;
78854;SDS011;68206;59.956;30.234;2024-01-30T12:45:33;8.95;;;4.15;;
78854;SDS011;68206;59.956;30.234;2024-01-30T12:48:02;8.70;;;3.72;;
78854;SDS011;68206;59.956;30.234;2024-01-30T12:50:31;9.13;;;4.13;;
78854;SDS011;68206;59.956;30.234;2024-01-30T12:53:00;8.70;;;4.70;;
78854;SDS011;68206;59.956;30.234;2024-01-30T12:55:29;10.90;;;4.10;;
78854;SDS011;68206;59.956;30.234;2024-01-30T12:57:58;7.93;;;4.20;;
78854;SDS011;68206;59.956;30.234;2024-01-30T13:00:26;9.00;;;4.15;;
78854;SDS011;68206;59.956;30.234;2024-01-30T13:02:55;11.90;;;4.60;;
78854;SDS011;68206;59.956;30.234;2024-01-30T13:05:23;10.80;;;4.47;;
78854;SDS011;68206;59.956;30.234;2024-01-30T13:07:52;9.80;;;4.20;;
78854;SDS011;68206;59.956;30.234;2024-01-30T13:10:24;10.50;;;4.20;;
78854;SDS011;68206;59.956;30.234;2024-01-30T13:12:52;9.15;;;4.93;;
78854;SDS011;68206;59.956;30.234;2024-01-30T13:15:21;12.27;;;5.32;;
78854;SDS011;68206;59.956;30.234;2024-01-30T13:17:50;13.38;;;4.25;;
78854;SDS011;68206;59.956;30.234;2024-01-30T13:20:22;8.13;;;4.00;;
78854;SDS011;68206;59.956;30.234;2024-01-30T13:22:50;8.32;;;4.20;;
78854;SDS011;68206;59.956;30.234;2024-01-30T13:25:19;10.43;;;4.47;;
78854;SDS011;68206;59.956;30.234;2024-01-30T13:27:50;11.98;;;4.93;;
78854;SDS011;68206;59.956;30.234;2024-01-30T13:30:19;7.78;;;4.38;;
78854;SDS011;68206;59.956;30.234;2024-01-30T13:32:47;13.55;;;4.88;;
78854;SDS011;68206;59.956;30.234;2024-01-30T13:35:16;12.65;;;4.28;;
78854;SDS011;68206;59.956;30.234;2024-01-30T13:37:44;12.60;;;4.10;;
78854;SDS011;68206;59.956;30.234;2024-01-30T13:40:14;8.48;;;4.47;;
78854;SDS011;68206;59.956;30.234;2024-01-30T13:42:43;9.50;;;4.10;;
78854;SDS011;68206;59.956;30.234;2024-01-30T13:45:13;10.85;;;4.28;;
78854;SDS011;68206;59.956;30.234;2024-01-30T13:47:42;13.35;;;4.80;;
78854;SDS011;68206;59.956;30.234;2024-01-30T13:50:10;10.93;;;4.15;;
78854;SDS011;68206;59.956;30.234;2024-01-30T13:52:42;10.70;;;4.60;;
78854;SDS011;68206;59.956;30.234;2024-01-30T13:55:12;10.70;;;4.78;;
78854;SDS011;68206;59.956;30.234;2024-01-30T13:57:41;8.90;;;4.68;;
78854;SDS011;68206;59.956;30.234;2024-01-30T14:00:10;9.35;;;4.13;;
78854;SDS011;68206;59.956;30.234;2024-01-30T14:02:45;7.93;;;4.35;;
78854;SDS011;68206;59.956;30.234;2024-01-30T14:05:14;10.85;;;4.68;;
78854;SDS011;68206;59.956;30.234;2024-01-30T14:07:42;14.30;;;4.80;;
78854;SDS011;68206;59.956;30.234;2024-01-30T14:10:11;14.13;;;5.47;;
78854;SDS011;68206;59.956;30.234;2024-01-30T14:12:41;8.98;;;4.00;;
78854;SDS011;68206;59.956;30.234;2024-01-30T14:15:11;9.45;;;4.50;;
78854;SDS011;68206;59.956;30.234;2024-01-30T14:17:55;8.65;;;4.50;;
78854;SDS011;68206;59.956;30.234;2024-01-30T14:20:25;9.43;;;4.35;;
78854;SDS011;68206;59.956;30.234;2024-01-30T14:22:54;11.45;;;4.95;;
78854;SDS011;68206;59.956;30.234;2024-01-30T14:25:23;11.60;;;4.38;;
78854;SDS011;68206;59.956;30.234;2024-01-30T14:27:52;11.68;;;4.50;;
78854;SDS011;68206;59.956;30.234;2024-01-30T14:30:21;11.65;;;4.90;;
78854;SDS011;68206;59.956;30.234;2024-01-30T14:32:49;8.55;;;4.38;;
78854;SDS011;68206;59.956;30.234;2024-01-30T14:35:20;11.75;;;4.70;;
78854;SDS011;68206;59.956;30.234;2024-01-30T14:37:48;12.52;;;4.63;;
78854;SDS011;68206;59.956;30.234;2024-01-30T14:40:17;15.95;;;6.03;;